Flight Track Log - Related Links

Times and Time Zones

All times are in EDT time to prevent confusion due to time zone crossing. See the SCX342 flight status page for this flight to view local times or setup timezone preferences in your user account.

Time Position Orientation Groundspeed Altitude Reporting Facility
EDT Latitude Longitude Course Direction KTS MPH feet Rate Location/Type
Mon 01:04:28 PM 28.4000 -81.3000 240° Southwest 164 189 700  Level Orlando TRACON
Mon 01:05:52 PM 28.3667 -81.3667 240° Southwest 247 284 4,300 2,897 Climbing Orlando TRACON
Mon 01:06:53 PM 28.3667 -81.4333 270° West 243 280 7,700 3,074 Climbing Orlando TRACON
Mon 01:07:53 PM 28.4000 -81.5167 294° West 284 327 10,500 2,423 Climbing Orlando TRACON
Mon 01:09:29 PM 28.4447 -81.6814 287° West 382 440 14,000 2,331 Climbing Jacksonville Center
Mon 01:10:30 PM 28.4542 -81.7969 275° West 382 440 16,600 2,529 Climbing Jacksonville Center
Mon 01:11:30 PM 28.4675 -81.9172 277° West 377 434 19,100 2,200 Climbing Jacksonville Center
Mon 01:12:30 PM 28.4767 -82.0211 276° West 390 449 21,000 2,000 Climbing Jacksonville Center
Mon 01:13:30 PM 28.4900 -82.1628 276° West 405 466 23,100 1,950 Climbing Jacksonville Center
Mon 01:14:30 PM 28.5033 -82.2972 276° West 422 486 24,900 1,950 Climbing Jacksonville Center
Mon 01:15:30 PM 28.5769 -82.4175 305° West 404 465 27,000 1,700 Climbing Jacksonville Center
Mon 01:16:30 PM 28.6647 -82.4714 332° Northwest 404 465 28,300 1,600 Climbing Jacksonville Center
Mon 01:17:30 PM 28.7986 -82.5539 332° Northwest 437 503 30,200 1,900 Climbing Jacksonville Center
Mon 01:18:30 PM 28.9114 -82.6244 331° Northwest 445 512 32,100 2,150 Climbing Jacksonville Center
Mon 01:19:30 PM 29.0181 -82.6931 331° Northwest 451 519 34,500 2,250 Climbing Jacksonville Center
Mon 01:20:30 PM 29.1225 -82.7547 333° Northwest 443 510 36,600 1,462 Climbing Jacksonville Center
Mon 01:21:29 PM 29.2247 -82.8189 331° Northwest 424 488 37,400 605 Climbing Jacksonville Center
Mon 01:22:29 PM 29.3311 -82.8831 332° Northwest 424 488 37,800 300 Climbing Jacksonville Center
Mon 01:23:29 PM 29.4378 -82.9497 331° Northwest 424 488 38,000 50 Climbing Jacksonville Center
Mon 01:24:29 PM 29.5483 -83.0214 331° Northwest 438 504 37,900 -50 Descending Jacksonville Center
Mon 01:25:29 PM 29.6547 -83.0861 332° Northwest 437 503 37,900  Level Jacksonville Center
Mon 01:26:29 PM 29.7567 -83.1653 326° Northwest 447 514 37,900 50 Level Jacksonville Center
Mon 01:27:29 PM 29.8569 -83.2469 325° Northwest 443 510 38,000  Climbing Jacksonville Center
Mon 01:28:30 PM 29.9569 -83.3072 332° Northwest 443 510 37,900  Descending Jacksonville Center
Mon 01:29:29 PM 30.0653 -83.3703 333° Northwest 438 504 38,000 50 Climbing Jacksonville Center
Mon 01:30:29 PM 30.1714 -83.4331 333° Northwest 433 498 38,000 -50 Level Jacksonville Center
Mon 01:31:29 PM 30.2797 -83.4986 332° Northwest 433 498 37,900 -50 Descending Jacksonville Center
Mon 01:32:29 PM 30.3858 -83.5644 332° Northwest 427 491 37,900 50 Level Jacksonville Center
Mon 01:33:30 PM 30.4942 -83.6303 332° Northwest 427 491 38,000 50 Climbing Jacksonville Center
Mon 01:34:30 PM 30.6083 -83.7011 332° Northwest 427 491 38,000  Level Jacksonville Center
Mon 01:35:29 PM 30.7167 -83.7697 331° Northwest 427 491 38,000  Level Jacksonville Center
Mon 01:36:29 PM 30.8267 -83.8361 333° Northwest 434 499 38,000  Level Jacksonville Center
Mon 01:37:30 PM 30.9347 -83.9025 332° Northwest 434 499 38,000  Level Jacksonville Center
Mon 01:38:29 PM 31.0450 -83.9717 332° Northwest 434 499 38,000  Level Jacksonville Center
Mon 01:40:33 PM 31.2603 -84.1044 332° Northwest 434 499 38,000  Level Atlanta Center
Mon 01:41:33 PM 31.3667 -84.1725 331° Northwest 434 499 38,000  Level Atlanta Center
Mon 01:42:33 PM 31.4856 -84.2458 332° Northwest 439 505 38,000  Level Atlanta Center
Mon 01:43:33 PM 31.5939 -84.3119 333° Northwest 439 505 38,000  Level Atlanta Center
Mon 01:44:33 PM 31.7022 -84.3806 332° Northwest 439 505 38,000  Level Atlanta Center
Mon 01:45:33 PM 31.8106 -84.4494 332° Northwest 439 505 38,000  Level Atlanta Center
Mon 01:46:33 PM 31.9169 -84.5161 332° Northwest 439 505 38,000  Level Atlanta Center
Mon 01:47:33 PM 32.0250 -84.5850 332° Northwest 439 505 38,000  Level Atlanta Center
Mon 01:48:33 PM 32.1333 -84.6544 332° Northwest 439 505 38,000  Level Atlanta Center
Mon 01:49:33 PM 32.2436 -84.7239 332° Northwest 439 505 38,000  Level Atlanta Center
Mon 01:50:33 PM 32.3539 -84.7961 331° Northwest 439 505 38,000  Level Atlanta Center
Mon 01:51:33 PM 32.4514 -84.8511 335° Northwest 439 505 38,000  Level Atlanta Center
Mon 01:52:33 PM 32.5658 -84.9236 332° Northwest 440 506 38,000  Level Atlanta Center
Mon 01:53:33 PM 32.6781 -84.9964 331° Northwest 451 519 38,000  Level Atlanta Center
Mon 01:54:33 PM 32.7861 -85.0667 331° Northwest 460 529 38,000  Level Atlanta Center
Mon 01:55:33 PM 32.8958 -85.1472 328° Northwest 465 535 38,000  Level Atlanta Center
Mon 01:56:33 PM 33.0061 -85.2056 336° Northwest 452 520 38,000  Level Atlanta Center
Mon 01:57:33 PM 33.1219 -85.2914 328° Northwest 452 520 38,000  Level Atlanta Center
Mon 01:58:33 PM 33.2319 -85.3625 332° Northwest 446 513 38,000  Level Atlanta Center
Mon 01:59:33 PM 33.3336 -85.4286 331° Northwest 429 494 38,000  Level Atlanta Center
Mon 02:00:33 PM 33.4453 -85.5053 330° Northwest 435 501 38,000  Level Atlanta Center
Mon 02:01:33 PM 33.5531 -85.5719 333° Northwest 435 501 38,000  Level Atlanta Center
Mon 02:02:33 PM 33.6608 -85.6386 333° Northwest 435 501 38,000  Level Atlanta Center
Mon 02:03:33 PM 33.7667 -85.6831 341° North 440 506 38,000  Level Atlanta Center
Mon 02:04:33 PM 33.8786 -85.7328 340° North 440 506 38,000  Level Atlanta Center
Mon 02:05:33 PM 33.9969 -85.7828 341° North 434 499 38,000  Level Atlanta Center
Mon 02:06:33 PM 34.1069 -85.8250 342° North 427 491 38,000  Level Atlanta Center
Mon 02:07:33 PM 34.2189 -85.8725 341° North 422 486 38,000  Level Atlanta Center
Mon 02:08:33 PM 34.3286 -85.9253 338° Northwest 422 486 38,000  Level Atlanta Center
Mon 02:10:33 PM 34.5353 -86.0686 330° Northwest 422 486 38,000  Level Atlanta Center
Mon 02:11:33 PM 34.6342 -86.1392 330° Northwest 422 486 38,000  Level Atlanta Center
Mon 02:12:33 PM 34.7353 -86.2100 330° Northwest 417 480 38,000  Level Atlanta Center
Mon 02:13:33 PM 34.8342 -86.2783 330° Northwest 417 480 38,000  Level Atlanta Center
Mon 02:14:33 PM 34.9350 -86.3469 331° Northwest 412 474 38,000 367 Level Atlanta Center
Mon 02:15:11 PM 35.0069 -86.4022 328° Northwest 414 476 38,600 796 Climbing Memphis Center
Mon 02:16:11 PM 35.1031 -86.4764 328° Northwest 432 497 39,300 700 Climbing Memphis Center
Mon 02:17:11 PM 35.2075 -86.5478 331° Northwest 426 490 40,000 350 Climbing Memphis Center
Mon 02:18:11 PM 35.3078 -86.6194 330° Northwest 420 483 40,000  Level Memphis Center
Mon 02:19:11 PM 35.4158 -86.6783 336° Northwest 420 483 40,000  Level Memphis Center
Mon 02:20:11 PM 35.5297 -86.7242 342° North 425 489 40,000  Level Memphis Center
Mon 02:21:11 PM 35.6417 -86.7731 340° North 425 489 40,000  Level Memphis Center
Mon 02:22:11 PM 35.7558 -86.8217 341° North 430 495 40,000  Level Memphis Center
Mon 02:23:11 PM 35.8569 -86.8636 341° North 430 495 40,000  Level Memphis Center
Mon 02:24:11 PM 35.9708 -86.9100 342° North 430 495 40,000  Level Memphis Center
Mon 02:25:11 PM 36.0847 -86.9564 342° North 430 495 40,000  Level Memphis Center
Mon 02:26:11 PM 36.1986 -87.0058 341° North 430 495 40,000  Level Memphis Center
Mon 02:27:11 PM 36.3272 -87.0597 341° North 435 501 40,000  Level Memphis Center
Mon 02:28:11 PM 36.4431 -87.0989 345° North 435 501 40,000  Level Memphis Center
Mon 02:29:11 PM 36.5567 -87.1433 343° North 429 494 40,000  Level Memphis Center
Mon 02:30:11 PM 36.6706 -87.1881 343° North 429 494 40,000  Level Memphis Center
Mon 02:31:11 PM 36.7842 -87.2328 343° North 429 494 40,000  Level Memphis Center
Mon 02:32:11 PM 36.8958 -87.2803 341° North 429 494 40,000  Level Memphis Center
Mon 02:33:11 PM 36.9969 -87.3231 341° North 429 494 40,000  Level Memphis Center
Mon 02:34:42 PM 37.1653 -87.3911 342° North 428 493 40,000  Level Indianapolis Center
Mon 02:35:44 PM 37.2850 -87.4769 330° Northwest 422 486 40,000  Level Indianapolis Center
Mon 02:36:46 PM 37.3828 -87.5581 327° Northwest 419 482 40,000  Level Indianapolis Center
Mon 02:37:48 PM 37.4789 -87.6411 326° Northwest 416 479 40,000  Level Indianapolis Center
Mon 02:38:49 PM 37.5753 -87.7286 324° Northwest 422 486 40,000  Level Indianapolis Center
Mon 02:39:51 PM 37.6733 -87.8114 326° Northwest 420 483 40,000  Level Indianapolis Center
Mon 02:40:53 PM 37.7739 -87.8986 326° Northwest 421 484 40,000  Level Indianapolis Center
Mon 02:41:55 PM 37.8717 -87.9839 325° Northwest 423 487 40,000  Level Indianapolis Center
Mon 02:42:57 PM 37.9697 -88.0683 326° Northwest 423 487 40,000  Level Indianapolis Center
Mon 02:43:59 PM 38.0681 -88.1536 326° Northwest 424 488 40,000  Level Indianapolis Center
Mon 02:45:01 PM 38.1644 -88.2381 325° Northwest 420 483 40,000  Level Indianapolis Center
Mon 02:46:10 PM 38.2828 -88.3406 326° Northwest 421 484 40,000  Level Kansas City Center
Mon 02:47:12 PM 38.3789 -88.4256 325° Northwest 420 483 40,000  Level Kansas City Center
Mon 02:48:15 PM 38.4750 -88.5103 325° Northwest 418 481 40,000  Level Kansas City Center
Mon 02:49:17 PM 38.5711 -88.5953 325° Northwest 418 481 40,000  Level Kansas City Center
Mon 02:50:19 PM 38.6747 -88.6867 325° Northwest 415 478 40,000  Level Kansas City Center
Mon 02:51:21 PM 38.7681 -88.7706 325° Northwest 413 475 40,000  Level Kansas City Center
Mon 02:52:23 PM 38.8622 -88.8539 325° Northwest 413 475 40,000  Level Kansas City Center
Mon 02:53:25 PM 38.9722 -88.9519 325° Northwest 406 467 40,000  Level Kansas City Center
Mon 02:54:27 PM 39.0675 -89.0383 325° Northwest 404 465 40,000  Level Kansas City Center
Mon 02:55:29 PM 39.1547 -89.1175 325° Northwest 402 463 40,000  Level Kansas City Center
Mon 02:56:31 PM 39.2464 -89.1997 325° Northwest 403 464 40,000  Level Kansas City Center
Mon 02:57:33 PM 39.3372 -89.2822 325° Northwest 402 463 40,000  Level Kansas City Center
Mon 02:58:35 PM 39.4267 -89.3644 325° Northwest 398 458 40,000  Level Kansas City Center
Mon 02:59:37 PM 39.5353 -89.4639 325° Northwest 400 460 40,000  Level Kansas City Center
Mon 03:00:39 PM 39.6272 -89.5481 325° Northwest 404 465 40,000  Level Kansas City Center
Mon 03:01:41 PM 39.7228 -89.6353 325° Northwest 401 461 40,000  Level Kansas City Center
Mon 03:02:43 PM 39.8136 -89.7197 324° Northwest 400 460 40,000  Level Kansas City Center
Mon 03:03:45 PM 39.9042 -89.8050 324° Northwest 401 461 40,000  Level Kansas City Center
Mon 03:04:47 PM 39.9942 -89.8894 324° Northwest 398 458 40,000  Level Kansas City Center
Mon 03:05:49 PM 40.0839 -89.9725 325° Northwest 396 456 40,000  Level Kansas City Center
Mon 03:06:51 PM 40.1739 -90.0569 324° Northwest 396 456 40,000  Level Kansas City Center
Mon 03:07:53 PM 40.2822 -90.1594 324° Northwest 397 457 40,000  Level Kansas City Center
Mon 03:08:30 PM 40.3336 -90.2089 324° Northwest 394 453 40,000  Level Chicago Center
Mon 03:09:32 PM 40.4239 -90.2950 324° Northwest 397 457 40,000  Level Chicago Center
Mon 03:10:34 PM 40.5125 -90.3789 324° Northwest 393 452 40,000  Level Chicago Center
Mon 03:11:36 PM 40.6014 -90.4628 324° Northwest 390 449 40,000  Level Chicago Center
Mon 03:12:38 PM 40.6889 -90.5464 324° Northwest 387 445 40,000  Level Chicago Center
Mon 03:13:40 PM 40.7769 -90.6300 324° Northwest 388 447 40,000  Level Chicago Center
Mon 03:14:42 PM 40.8639 -90.7144 324° Northwest 387 445 40,000  Level Chicago Center
Mon 03:15:44 PM 40.9692 -90.8156 324° Northwest 388 447 40,000  Level Chicago Center
Mon 03:16:46 PM 41.0567 -90.9003 324° Northwest 388 447 40,000  Level Chicago Center
Mon 03:17:48 PM 41.1436 -90.9856 324° Northwest 389 448 40,000  Level Chicago Center
Mon 03:18:51 PM 41.2294 -91.0692 324° Northwest 384 442 40,000  Level Chicago Center
Mon 03:19:53 PM 41.3156 -91.1542 323° Northwest 384 442 40,000 -48 Level Chicago Center
Mon 03:20:55 PM 41.4011 -91.2372 324° Northwest 381 438 39,900 -339 Descending Chicago Center
Mon 03:21:57 PM 41.5008 -91.3361 323° Northwest 385 443 39,300 -484 Descending Chicago Center
Mon 03:22:59 PM 41.5861 -91.4208 323° Northwest 385 443 38,900 -435 Descending Chicago Center
Mon 03:24:01 PM 41.6714 -91.5047 324° Northwest 383 441 38,400 -484 Descending Chicago Center
Mon 03:25:03 PM 41.7553 -91.5864 324° Northwest 376 433 37,900 -532 Descending Chicago Center
Mon 03:26:05 PM 41.8544 -91.6861 323° Northwest 373 429 37,300 -484 Descending Chicago Center
Mon 03:27:07 PM 41.9367 -91.7681 323° Northwest 371 427 36,900 -435 Descending Chicago Center
Mon 03:28:09 PM 42.0197 -91.8536 323° Northwest 375 432 36,400 -1,210 Descending Chicago Center
Mon 03:29:11 PM 42.1025 -91.9361 324° Northwest 372 428 34,400 -1,403 Descending Chicago Center
Mon 03:30:13 PM 42.1839 -92.0192 323° Northwest 368 423 33,500 -864 Descending Chicago Center
Mon 03:31:16 PM 42.2694 -92.1050 323° Northwest 381 438 32,600 -1,680 Descending Chicago Center
Mon 03:32:18 PM 42.3744 -92.2114 323° Northwest 394 453 30,000 -1,258 Descending Chicago Center
Mon 03:33:20 PM 42.4642 -92.3044 323° Northwest 405 466 30,000  Level Chicago Center
Mon 03:34:22 PM 42.5522 -92.3958 323° Northwest 401 461 30,000  Level Chicago Center
Mon 03:35:24 PM 42.6439 -92.4797 326° Northwest 398 458 30,000  Level Chicago Center
Mon 03:36:26 PM 42.7375 -92.5661 326° Northwest 404 465 30,000  Level Chicago Center
Mon 03:37:16 PM 42.8314 -92.6519 326° Northwest 401 461 30,000  Level Minneapolis Center
Mon 03:38:18 PM 42.9203 -92.7375 325° Northwest 400 460 30,000  Level Minneapolis Center
Mon 03:39:20 PM 43.0133 -92.8242 326° Northwest 405 466 30,000  Level Minneapolis Center
Mon 03:40:22 PM 43.1061 -92.9100 326° Northwest 405 466 30,000  Level Minneapolis Center
Mon 03:41:24 PM 43.1992 -92.9961 326° Northwest 407 468 30,000 -1,161 Level Minneapolis Center
Mon 03:42:26 PM 43.3094 -93.1017 325° Northwest 406 467 27,600 -3,000 Descending Minneapolis Center
Mon 03:43:28 PM 43.4247 -93.1356 348° North 426 490 23,800 -2,400 Descending Minneapolis Center
Mon 03:44:31 PM 43.5344 -93.1453 356° North 407 468 22,600 -1,152 Descending Minneapolis Center
Mon 03:45:33 PM 43.6336 -93.1569 355° North 352 405 21,400 -1,258 Descending Minneapolis Center
Mon 03:46:35 PM 43.7228 -93.1650 356° North 327 376 20,000 -1,500 Descending Minneapolis Center
Mon 03:47:37 PM 43.8083 -93.1758 355° North 313 360 18,300 -1,597 Descending Minneapolis Center
Mon 03:48:39 PM 43.8931 -93.1844 356° North 307 353 16,700 -1,742 Descending Minneapolis Center
Mon 03:49:41 PM 43.9900 -93.1956 355° North 294 338 14,700 -1,742 Descending Minneapolis Center
Mon 03:50:43 PM 44.0700 -93.2047 355° North 292 336 13,100 -1,548 Descending Minneapolis Center
Mon 03:51:45 PM 44.1472 -93.2114 356° North 281 323 11,500 -1,258 Descending Minneapolis Center
Mon 03:52:47 PM 44.2250 -93.2083 North 280 322 10,500 -774 Descending Minneapolis Center
Mon 03:53:49 PM 44.3008 -93.2069 North 274 315 9,900 -816 Descending Minneapolis Center
Mon 03:54:52 PM 44.3858 -93.2042 North 254 292 8,800 -1,104 Descending Minneapolis Center
Mon 03:55:54 PM 44.4550 -93.2025 North 249 287 7,600 -1,210 Descending Minneapolis Center
Mon 03:56:56 PM 44.5231 -93.2000 North 245 282 6,300 -919 Descending Minneapolis Center
Mon 03:57:58 PM 44.5883 -93.1986 North 237 273 5,700 -774 Descending Minneapolis Center
Mon 03:59:00 PM 44.6525 -93.1969 North 233 268 4,700 -871 Descending Minneapolis Center
Mon 04:00:02 PM 44.7022 -93.1953 North 228 262 3,900 -1,016 Descending Minneapolis Center
Mon 04:01:04 PM 44.7756 -93.2133 350° North 197 227 2,600 -1,065 Descending Minneapolis Center
Mon 04:02:06 PM 44.8211 -93.2250 350° North 175 201 1,700 -871 Descending Minneapolis Center
Mon 04:04:00 PM 44.8667 -93.2167 North  Level FlightAware Approximate
Mon 04:11:00 PM 44.8820 -93.2218 North  Level Estimated

Login

Don't have an account? Register now (free) for customized features, flight alerts, and more!